Terminal Aerodrome Forecast
Issued by NWS Grand Junction, CO

Home | Current Version | Previous Version | Text Only | Print | Product List | Glossary On
Versions: 1 2 3 4 5 6 7 8 9 10 11 12 13 14 15 16 17 18 19 20 21 22 23 24 25 26 27 28 29 30 31 32 33 34
617
FTUS45 KGJT 221122
TAFGJT
TAF
KGJT 221122Z 2212/2312 13007KT P6SM SKC
     FM221800 26004KT P6SM FEW250
     FM222100 30007KT P6SM FEW250
     FM230200 06006KT P6SM SCT250
     FM230600 11005KT P6SM SCT250=

USA.gov is the U.S. government's official web portal to all federal, state and local government web resources and services.